createdAt,value
2022-10-04T00:00:01.901Z,0
2022-10-04T00:01:01.570Z,0
2022-10-04T00:02:03.060Z,0
2022-10-04T00:03:03.357Z,0
2022-10-04T00:04:03.957Z,0
2022-10-04T00:05:04.594Z,0
2022-10-04T00:06:05.531Z,0
2022-10-04T00:07:05.733Z,0
2022-10-04T00:08:06.232Z,0
2022-10-04T00:09:06.416Z,0
2022-10-04T00:10:07.149Z,0
2022-10-04T00:11:07.039Z,0
2022-10-04T00:12:07.945Z,0
2022-10-04T00:13:08.429Z,0
2022-10-04T00:14:08.322Z,0
2022-10-04T00:15:08.529Z,0
2022-10-04T00:16:08.952Z,0
2022-10-04T00:17:08.949Z,0
2022-10-04T00:18:09.885Z,0
2022-10-04T00:19:10.204Z,0
2022-10-04T00:20:11.350Z,0
2022-10-04T00:21:11.939Z,0
2022-10-04T00:22:12.850Z,0
2022-10-04T00:23:13.480Z,0
2022-10-04T00:24:14.669Z,0
2022-10-04T00:25:14.595Z,0
2022-10-04T00:26:15.501Z,0
2022-10-04T00:27:16.414Z,0
2022-10-04T00:28:16.963Z,0
2022-10-04T00:29:17.273Z,0
2022-10-04T00:30:18.593Z,0
2022-10-04T00:31:18.592Z,0
2022-10-04T00:32:18.649Z,0
2022-10-04T00:33:19.560Z,0
2022-10-04T00:34:20.499Z,0
2022-10-04T00:35:20.607Z,0
2022-10-04T00:36:21.245Z,0
2022-10-04T00:37:21.877Z,0
2022-10-04T00:38:22.844Z,0
2022-10-04T00:39:23.465Z,0
2022-10-04T00:40:24.481Z,0
2022-10-04T00:41:25.095Z,0
2022-10-04T00:42:26.295Z,0
2022-10-04T00:43:26.882Z,0
2022-10-04T00:44:26.514Z,0
2022-10-04T00:45:27.441Z,0
2022-10-04T00:46:27.818Z,0
2022-10-04T00:47:28.134Z,0
2022-10-04T00:48:36.720Z,0
2022-10-04T00:49:29.920Z,0
2022-10-04T00:50:29.942Z,0
2022-10-04T00:51:30.555Z,0
2022-10-04T00:52:31.170Z,0
2022-10-04T00:53:32.372Z,0
2022-10-04T00:54:33.011Z,0
2022-10-04T00:55:33.304Z,0
2022-10-04T00:56:34.239Z,0
2022-10-04T00:57:34.726Z,0
2022-10-04T00:58:35.064Z,0
2022-10-04T00:59:36.001Z,0
2022-10-04T01:00:36.442Z,0
2022-10-04T01:01:37.340Z,0
2022-10-04T01:02:38.115Z,0
2022-10-04T01:03:38.372Z,0
2022-10-04T01:04:38.298Z,0
2022-10-04T01:05:38.617Z,0
2022-10-04T01:06:38.657Z,0
2022-10-04T01:07:39.863Z,0
2022-10-04T01:08:40.505Z,0
2022-10-04T01:09:41.440Z,0
2022-10-04T01:10:41.734Z,0
2022-10-04T01:11:42.529Z,0
2022-10-04T01:12:42.792Z,0
2022-10-04T01:13:42.708Z,0
2022-10-04T01:14:43.613Z,0
2022-10-04T01:15:44.493Z,0
2022-10-04T01:16:44.525Z,0
2022-10-04T01:17:44.570Z,0
2022-10-04T01:18:45.201Z,0
2022-10-04T01:19:46.682Z,0
2022-10-04T01:20:46.672Z,0
2022-10-04T01:21:47.964Z,0
2022-10-04T01:22:48.177Z,0
2022-10-04T01:23:48.394Z,0
2022-10-04T01:24:48.583Z,0
2022-10-04T01:25:49.248Z,0
2022-10-04T01:26:50.160Z,0
2022-10-04T01:27:51.128Z,0
2022-10-04T01:28:51.106Z,0
2022-10-04T01:29:52.008Z,0
2022-10-04T01:30:53.053Z,0
2022-10-04T01:31:54.848Z,0
2022-10-04T01:32:56.899Z,0
2022-10-04T01:33:55.811Z,0
2022-10-04T01:34:56.300Z,0
2022-10-04T01:35:56.484Z,0
2022-10-04T01:36:56.475Z,0
2022-10-04T01:37:57.386Z,0
2022-10-04T01:38:58.105Z,0
2022-10-04T01:39:59.011Z,0
2022-10-04T01:40:59.742Z,0
2022-10-04T01:42:00.350Z,0
2022-10-04T01:43:00.963Z,0
2022-10-04T01:44:01.397Z,0
2022-10-04T01:45:01.723Z,0
2022-10-04T01:46:03.078Z,0
2022-10-04T01:47:03.297Z,0
2022-10-04T01:48:03.187Z,0
2022-10-04T01:49:04.671Z,0
2022-10-04T01:50:04.283Z,0
2022-10-04T01:51:05.087Z,0
2022-10-04T01:52:06.269Z,0
2022-10-04T01:53:07.465Z,0
2022-10-04T01:54:07.664Z,0
2022-10-04T01:55:07.271Z,0
2022-10-04T01:56:08.231Z,0
2022-10-04T01:57:09.148Z,0
2022-10-04T01:58:09.760Z,0
2022-10-04T01:59:10.963Z,0
2022-10-04T02:00:12.147Z,0
2022-10-04T02:01:12.269Z,0
2022-10-04T02:02:11.964Z,0
2022-10-04T02:03:12.858Z,0
2022-10-04T02:04:15.466Z,0
2022-10-04T02:05:15.058Z,0
2022-10-04T02:06:15.034Z,0
2022-10-04T02:07:15.942Z,0
2022-10-04T02:08:16.556Z,0
2022-10-04T02:09:17.898Z,0
2022-10-04T02:10:17.803Z,0
2022-10-04T02:11:19.098Z,0
2022-10-04T02:12:19.011Z,0
2022-10-04T02:13:19.348Z,0
2022-10-04T02:14:20.538Z,0
2022-10-04T02:15:21.727Z,0
2022-10-04T02:16:21.991Z,0
2022-10-04T02:17:22.310Z,0
2022-10-04T02:18:22.500Z,0
2022-10-04T02:19:23.700Z,0
2022-10-04T02:20:23.889Z,0
2022-10-04T02:21:24.331Z,0
2022-10-04T02:22:25.238Z,0
2022-10-04T02:23:25.743Z,0
2022-10-04T02:24:26.239Z,0
2022-10-04T02:25:26.151Z,0
2022-10-04T02:26:27.076Z,0
2022-10-04T02:27:27.572Z,0
2022-10-04T02:28:28.144Z,0
2022-10-04T02:29:28.246Z,0
2022-10-04T02:30:28.734Z,0
2022-10-04T02:31:29.851Z,0
2022-10-04T02:32:29.874Z,0
2022-10-04T02:33:30.900Z,0
2022-10-04T02:34:31.807Z,0
2022-10-04T02:35:32.141Z,0
2022-10-04T02:36:33.771Z,0
2022-10-04T02:37:34.255Z,0
2022-10-04T02:38:34.498Z,0
2022-10-04T02:39:35.000Z,0
2022-10-04T02:40:34.886Z,0
2022-10-04T02:41:35.331Z,0
2022-10-04T02:42:35.579Z,0
2022-10-04T02:43:36.508Z,0
2022-10-04T02:44:36.523Z,0
2022-10-04T02:45:38.011Z,0
2022-10-04T02:46:38.815Z,0
2022-10-04T02:47:38.350Z,0
2022-10-04T02:48:39.541Z,0
2022-10-04T02:49:40.023Z,0
2022-10-04T02:50:40.070Z,0
2022-10-04T02:51:41.009Z,0
2022-10-04T02:52:42.033Z,0
2022-10-04T02:53:42.668Z,0
2022-10-04T02:54:43.863Z,0
2022-10-04T02:55:44.077Z,0
2022-10-04T02:56:44.728Z,0
2022-10-04T02:57:45.338Z,0
2022-10-04T02:58:46.273Z,0
2022-10-04T02:59:46.866Z,0
2022-10-04T03:00:47.095Z,0
2022-10-04T03:01:48.396Z,0
2022-10-04T03:02:48.305Z,0
2022-10-04T03:03:48.246Z,0
2022-10-04T03:04:49.159Z,0
2022-10-04T03:05:50.068Z,0
2022-10-04T03:06:50.673Z,0
2022-10-04T03:07:51.003Z,0
2022-10-04T03:08:52.493Z,0
2022-10-04T03:09:52.997Z,0
2022-10-04T03:10:52.900Z,0
2022-10-04T03:11:54.247Z,0
2022-10-04T03:12:54.180Z,0
2022-10-04T03:13:55.072Z,0
2022-10-04T03:14:55.684Z,0
2022-10-04T03:15:56.864Z,0
2022-10-04T03:16:57.455Z,0
2022-10-04T03:17:57.663Z,0
2022-10-04T03:18:58.154Z,0
2022-10-04T03:19:58.341Z,0
2022-10-04T03:20:58.653Z,0
2022-10-04T03:21:59.364Z,0
2022-10-04T03:23:00.279Z,0
2022-10-04T03:24:00.203Z,0
2022-10-04T03:25:01.207Z,0
2022-10-04T03:26:01.410Z,0
2022-10-04T03:27:02.375Z,0
2022-10-04T03:28:03.433Z,0
2022-10-04T03:29:03.162Z,0
2022-10-04T03:30:10.298Z,0
2022-10-04T03:31:04.339Z,0
2022-10-04T03:32:05.252Z,0
2022-10-04T03:33:05.195Z,0
2022-10-04T03:34:06.109Z,0
2022-10-04T03:35:06.734Z,0
2022-10-04T03:36:07.380Z,0
2022-10-04T03:37:08.152Z,0
2022-10-04T03:38:09.054Z,0
2022-10-04T03:39:09.686Z,0
2022-10-04T03:40:11.206Z,0
2022-10-04T03:41:11.116Z,0
2022-10-04T03:42:12.115Z,0
2022-10-04T03:43:12.052Z,0
2022-10-04T03:44:16.238Z,0
2022-10-04T03:45:12.672Z,0
2022-10-04T03:46:13.737Z,0
2022-10-04T03:47:13.970Z,0
2022-10-04T03:48:13.632Z,0
2022-10-04T03:49:14.820Z,0
2022-10-04T03:50:15.145Z,0
2022-10-04T03:51:16.059Z,0
2022-10-04T03:52:17.341Z,0
2022-10-04T03:53:17.551Z,0
2022-10-04T03:54:17.738Z,0
2022-10-04T03:55:18.686Z,0
2022-10-04T03:56:19.579Z,0
2022-10-04T03:57:20.078Z,0
2022-10-04T03:58:19.691Z,0
2022-10-04T03:59:20.002Z,0
2022-10-04T04:00:20.908Z,0
2022-10-04T04:01:21.605Z,0
2022-10-04T04:02:22.361Z,0
2022-10-04T04:03:22.725Z,0
2022-10-04T04:04:22.619Z,0
2022-10-04T04:05:23.507Z,0
2022-10-04T04:06:24.115Z,0
2022-10-04T04:07:25.024Z,0
2022-10-04T04:08:25.237Z,0
2022-10-04T04:09:25.863Z,0
2022-10-04T04:10:28.113Z,0
2022-10-04T04:11:27.324Z,0
2022-10-04T04:12:28.039Z,0
2022-10-04T04:13:28.985Z,0
2022-10-04T04:14:28.890Z,0
2022-10-04T04:15:28.776Z,0
2022-10-04T04:16:29.864Z,0
2022-10-04T04:17:29.580Z,0
2022-10-04T04:18:30.793Z,0
2022-10-04T04:19:31.004Z,0
2022-10-04T04:20:31.492Z,0
2022-10-04T04:21:31.680Z,0
2022-10-04T04:22:32.973Z,0
2022-10-04T04:23:33.475Z,0
2022-10-04T04:24:32.797Z,0
2022-10-04T04:25:34.714Z,0
2022-10-04T04:26:34.617Z,0
2022-10-04T04:27:40.431Z,0
2022-10-04T04:28:36.519Z,0
2022-10-04T04:29:36.187Z,0
2022-10-04T04:30:36.796Z,0
2022-10-04T04:31:38.218Z,0
2022-10-04T04:32:38.695Z,0
2022-10-04T04:33:39.327Z,0
2022-10-04T04:34:40.240Z,0
2022-10-04T04:35:41.434Z,0
2022-10-04T04:36:41.744Z,0
2022-10-04T04:37:42.371Z,0
2022-10-04T04:38:43.555Z,0
2022-10-04T04:39:44.167Z,0
2022-10-04T04:40:45.379Z,0
2022-10-04T04:41:49.605Z,0
2022-10-04T04:42:46.648Z,0
2022-10-04T04:43:46.560Z,0
2022-10-04T04:44:47.175Z,0
2022-10-04T04:45:58.330Z,0
2022-10-04T04:46:48.876Z,0
2022-10-04T04:47:48.554Z,0
2022-10-04T04:48:48.909Z,0
2022-10-04T04:49:50.397Z,0
2022-10-04T04:50:50.732Z,0
2022-10-04T04:51:51.974Z,0
2022-10-04T04:52:52.463Z,0
2022-10-04T04:53:53.355Z,0
2022-10-04T04:54:53.989Z,0
2022-10-04T04:56:20.659Z,0
2022-10-04T04:56:55.568Z,0
2022-10-04T04:57:56.765Z,0
2022-10-04T04:58:56.674Z,4
2022-10-04T04:59:57.308Z,0
2022-10-04T05:00:58.432Z,4
2022-10-04T05:01:59.019Z,4
2022-10-04T05:03:04.571Z,4
2022-10-04T05:03:58.627Z,4
2022-10-04T05:04:59.536Z,4
2022-10-04T05:05:59.869Z,4
2022-10-04T05:07:01.078Z,8
2022-10-04T05:08:01.698Z,4
2022-10-04T05:09:01.611Z,4
2022-10-04T05:10:01.923Z,8
2022-10-04T05:11:03.850Z,8
2022-10-04T05:12:03.444Z,12
2022-10-04T05:13:04.591Z,12
2022-10-04T05:14:04.481Z,12
2022-10-04T05:15:05.118Z,16
2022-10-04T05:16:06.005Z,16
2022-10-04T05:17:06.185Z,16
2022-10-04T05:18:06.738Z,20
2022-10-04T05:19:06.124Z,24
2022-10-04T05:20:07.333Z,28
2022-10-04T05:21:07.650Z,28
2022-10-04T05:22:08.571Z,28
2022-10-04T05:23:08.837Z,36
2022-10-04T05:24:09.451Z,36
2022-10-04T05:25:10.062Z,40
2022-10-04T05:26:10.983Z,44
2022-10-04T05:27:12.173Z,44
2022-10-04T05:28:12.298Z,48
2022-10-04T05:29:13.060Z,52
2022-10-04T05:30:13.667Z,52
2022-10-04T05:31:15.196Z,56
2022-10-04T05:32:15.451Z,56
2022-10-04T05:33:15.187Z,68
2022-10-04T05:34:15.528Z,68
2022-10-04T05:35:16.454Z,72
2022-10-04T05:36:17.661Z,76
2022-10-04T05:37:17.553Z,80
2022-10-04T05:38:18.442Z,84
2022-10-04T05:39:18.630Z,104
2022-10-04T05:40:18.970Z,112
2022-10-04T05:41:19.888Z,116
2022-10-04T05:42:20.495Z,128
2022-10-04T05:43:21.511Z,128
2022-10-04T05:44:22.005Z,156
2022-10-04T05:45:21.916Z,184
2022-10-04T05:46:22.847Z,176
2022-10-04T05:47:22.473Z,176
2022-10-04T05:48:23.798Z,168
2022-10-04T05:49:29.493Z,184
2022-10-04T05:50:24.436Z,196
2022-10-04T05:51:25.356Z,196
2022-10-04T05:52:25.847Z,240
2022-10-04T05:53:26.137Z,244
2022-10-04T05:54:26.485Z,220
2022-10-04T05:55:27.131Z,232
2022-10-04T05:56:27.784Z,232
2022-10-04T05:57:28.869Z,236
2022-10-04T05:58:29.172Z,252
2022-10-04T05:59:29.811Z,264
2022-10-04T06:00:30.000Z,276
2022-10-04T06:01:30.657Z,288
2022-10-04T06:02:30.775Z,292
2022-10-04T06:03:31.634Z,308
2022-10-04T06:04:31.840Z,316
2022-10-04T06:05:35.162Z,320
2022-10-04T06:06:33.056Z,344
2022-10-04T06:07:33.247Z,360
2022-10-04T06:08:34.162Z,388
2022-10-04T06:09:34.476Z,420
2022-10-04T06:10:35.966Z,424
2022-10-04T06:11:35.921Z,440
2022-10-04T06:12:35.737Z,456
2022-10-04T06:13:36.968Z,448
2022-10-04T06:14:38.184Z,464
2022-10-04T06:15:38.831Z,436
2022-10-04T06:16:39.694Z,484
2022-10-04T06:17:39.706Z,536
2022-10-04T06:18:40.345Z,500
2022-10-04T06:19:40.662Z,504
2022-10-04T06:20:42.327Z,500
2022-10-04T06:21:42.741Z,544
2022-10-04T06:22:42.776Z,480
2022-10-04T06:23:42.916Z,512
2022-10-04T06:24:43.526Z,524
2022-10-04T06:25:44.137Z,480
2022-10-04T06:26:44.647Z,568
2022-10-04T06:27:44.539Z,572
2022-10-04T06:28:45.377Z,608
2022-10-04T06:29:44.716Z,588
2022-10-04T06:30:46.308Z,536
2022-10-04T06:31:48.242Z,608
2022-10-04T06:32:47.783Z,612
2022-10-04T06:33:48.485Z,576
2022-10-04T06:34:49.690Z,584
2022-10-04T06:35:49.924Z,604
2022-10-04T06:36:50.407Z,632
2022-10-04T06:37:50.024Z,624
2022-10-04T06:38:50.641Z,684
2022-10-04T06:39:51.535Z,772
2022-10-04T06:40:52.452Z,836
2022-10-04T06:41:53.133Z,888
2022-10-04T06:42:52.473Z,908
2022-10-04T06:43:53.202Z,968
2022-10-04T06:44:57.379Z,796
2022-10-04T06:45:53.509Z,788
2022-10-04T06:46:54.080Z,852
2022-10-04T06:47:53.994Z,908
2022-10-04T06:48:54.907Z,932
2022-10-04T06:49:54.813Z,944
2022-10-04T06:50:56.058Z,1080
2022-10-04T06:51:56.195Z,1208
2022-10-04T06:52:56.387Z,1004
2022-10-04T06:53:56.983Z,804
2022-10-04T06:54:56.895Z,824
2022-10-04T06:55:57.085Z,796
2022-10-04T06:56:58.336Z,928
2022-10-04T06:57:58.239Z,888
2022-10-04T06:58:58.763Z,928
2022-10-04T06:59:59.258Z,1020
2022-10-04T07:00:59.105Z,1668
2022-10-04T07:02:00.115Z,1448
2022-10-04T07:02:59.798Z,1928
2022-10-04T07:04:02.660Z,2540
2022-10-04T07:05:19.148Z,1876
2022-10-04T07:06:02.383Z,1584
2022-10-04T07:07:02.297Z,1504
2022-10-04T07:08:03.210Z,1448
2022-10-04T07:09:03.129Z,1384
2022-10-04T07:10:03.772Z,1384
2022-10-04T07:11:05.805Z,1468
2022-10-04T07:12:05.038Z,1544
2022-10-04T07:13:05.378Z,1652
2022-10-04T07:14:06.709Z,1568
2022-10-04T07:15:06.624Z,1424
2022-10-04T07:16:07.441Z,1360
2022-10-04T07:17:07.492Z,1324
2022-10-04T07:18:08.117Z,1324
2022-10-04T07:19:09.338Z,1308
2022-10-04T07:20:09.988Z,1336
2022-10-04T07:21:10.935Z,1360
2022-10-04T07:22:12.450Z,1396
2022-10-04T07:23:12.884Z,1364
2022-10-04T07:24:12.639Z,1400
2022-10-04T07:25:12.496Z,1656
2022-10-04T07:26:13.450Z,2056
2022-10-04T07:27:14.010Z,2248
2022-10-04T07:28:14.280Z,2152
2022-10-04T07:29:14.845Z,1940
2022-10-04T07:30:15.474Z,1956
2022-10-04T07:31:16.685Z,2224
2022-10-04T07:32:17.098Z,2040
2022-10-04T07:33:17.999Z,1636
2022-10-04T07:34:18.037Z,1664
2022-10-04T07:35:18.657Z,1668
2022-10-04T07:36:21.822Z,1480
2022-10-04T07:37:19.913Z,1348
2022-10-04T07:38:21.120Z,1368
2022-10-04T07:39:21.330Z,1408
2022-10-04T07:40:21.324Z,1412
2022-10-04T07:41:22.265Z,1328
2022-10-04T07:42:23.577Z,1288
2022-10-04T07:43:23.505Z,1228
2022-10-04T07:44:24.591Z,1176
2022-10-04T07:45:29.217Z,1180
2022-10-04T07:46:25.850Z,1216
2022-10-04T07:47:26.403Z,1208
2022-10-04T07:48:27.348Z,1224
2022-10-04T07:49:27.331Z,1256
2022-10-04T07:50:28.052Z,1280
2022-10-04T07:51:29.037Z,1268
2022-10-04T07:52:29.060Z,1264
2022-10-04T07:53:30.550Z,1256
2022-10-04T07:54:30.551Z,1256
2022-10-04T07:55:30.755Z,1256
2022-10-04T07:56:30.656Z,1252
2022-10-04T07:57:32.159Z,1248
2022-10-04T07:58:31.769Z,1212
2022-10-04T07:59:33.074Z,1224
2022-10-04T08:00:33.704Z,1204
2022-10-04T08:01:34.443Z,1208
2022-10-04T08:02:40.280Z,1216
2022-10-04T08:03:36.074Z,1228
2022-10-04T08:04:36.159Z,1240
2022-10-04T08:05:36.352Z,1268
2022-10-04T08:06:37.309Z,1292
2022-10-04T08:07:37.536Z,1300
2022-10-04T08:08:38.466Z,1312
2022-10-04T08:09:38.408Z,1316
2022-10-04T08:10:39.122Z,1316
2022-10-04T08:11:40.239Z,1320
2022-10-04T08:12:40.645Z,1320
2022-10-04T08:13:41.267Z,1320
2022-10-04T08:14:41.457Z,1328
2022-10-04T08:15:43.265Z,1340
2022-10-04T08:16:43.811Z,1340
2022-10-04T08:17:43.573Z,1336
2022-10-04T08:18:44.073Z,1344
2022-10-04T08:19:44.299Z,1348
2022-10-04T08:20:44.222Z,1336
2022-10-04T08:21:45.544Z,1328
2022-10-04T08:22:46.083Z,1360
2022-10-04T08:23:45.740Z,1368
2022-10-04T08:24:47.982Z,1368
2022-10-04T08:25:47.152Z,1364
2022-10-04T08:26:49.064Z,1368
2022-10-04T08:27:48.355Z,1364
2022-10-04T08:28:49.773Z,1380
2022-10-04T08:29:49.722Z,1384
2022-10-04T08:30:50.895Z,1388
2022-10-04T08:31:50.928Z,1384
2022-10-04T08:32:52.165Z,1392
2022-10-04T08:33:52.097Z,1400
2022-10-04T08:34:53.207Z,1408
2022-10-04T08:35:54.141Z,1412
2022-10-04T08:36:55.076Z,1436
2022-10-04T08:37:55.626Z,1472
2022-10-04T08:38:56.176Z,1484
2022-10-04T08:39:56.672Z,1532
2022-10-04T08:40:57.469Z,1552
2022-10-04T08:41:58.166Z,1544
2022-10-04T08:42:58.775Z,1500
2022-10-04T08:43:58.698Z,1484
2022-10-04T08:44:59.149Z,1484
2022-10-04T08:46:00.381Z,1476
2022-10-04T08:47:01.145Z,1476
2022-10-04T08:48:01.453Z,1480
2022-10-04T08:49:02.127Z,1484
2022-10-04T08:50:03.653Z,1468
2022-10-04T08:51:04.030Z,1464
2022-10-04T08:52:05.275Z,1464
2022-10-04T08:53:10.133Z,1468
2022-10-04T08:54:05.716Z,1472
2022-10-04T08:55:07.036Z,1480
2022-10-04T08:56:06.952Z,1484
2022-10-04T08:57:11.217Z,1488
2022-10-04T08:58:08.652Z,1488
2022-10-04T08:59:08.976Z,1496
2022-10-04T09:00:10.487Z,1508
2022-10-04T09:01:11.567Z,1528
2022-10-04T09:02:11.282Z,1540
2022-10-04T09:03:12.762Z,1544
2022-10-04T09:04:13.314Z,1552
2022-10-04T09:05:13.191Z,1560
2022-10-04T09:06:14.533Z,1564
2022-10-04T09:07:15.064Z,1564
2022-10-04T09:08:15.273Z,1560
2022-10-04T09:09:15.780Z,1556
2022-10-04T09:10:16.731Z,1560
2022-10-04T09:11:16.823Z,1552
2022-10-04T09:12:16.743Z,1552
2022-10-04T09:13:17.117Z,1548
2022-10-04T09:14:18.337Z,1548
2022-10-04T09:15:18.671Z,1552
2022-10-04T09:16:19.625Z,1556
2022-10-04T09:17:28.359Z,1560
2022-10-04T09:18:21.588Z,1564
2022-10-04T09:19:22.108Z,1560
2022-10-04T09:20:48.253Z,1536
2022-10-04T09:21:22.756Z,1536
2022-10-04T09:22:23.290Z,1540
2022-10-04T09:23:23.531Z,1556
2022-10-04T09:24:24.201Z,1576
2022-10-04T09:25:23.899Z,1588
2022-10-04T09:26:24.514Z,1600
2022-10-04T09:28:01.129Z,1652
2022-10-04T09:28:26.425Z,1656
2022-10-04T09:29:26.668Z,1676
2022-10-04T09:30:27.321Z,1692
2022-10-04T09:31:28.246Z,1708
2022-10-04T09:32:28.575Z,1712
2022-10-04T09:33:28.902Z,1740
2022-10-04T09:34:33.882Z,1772
2022-10-04T09:35:30.174Z,1828
2022-10-04T09:36:30.424Z,1944
2022-10-04T09:37:30.970Z,1996
2022-10-04T09:38:31.190Z,2092
2022-10-04T09:39:42.769Z,2064
2022-10-04T09:40:32.766Z,2072
2022-10-04T09:41:33.410Z,2204
2022-10-04T09:42:34.320Z,2264
2022-10-04T09:43:35.585Z,2156
2022-10-04T09:44:35.813Z,2156
2022-10-04T09:45:36.858Z,2128
2022-10-04T09:46:37.423Z,2180
2022-10-04T09:47:37.581Z,2312
2022-10-04T09:48:38.507Z,2440
2022-10-04T09:49:39.167Z,2552
2022-10-04T09:50:40.073Z,3036
2022-10-04T09:51:40.727Z,3212
2022-10-04T09:52:42.027Z,3240
2022-10-04T09:53:42.011Z,3328
2022-10-04T09:54:50.018Z,3588
2022-10-04T09:55:44.372Z,3892
2022-10-04T09:56:44.934Z,3852
2022-10-04T09:57:45.409Z,3888
2022-10-04T09:58:45.928Z,3960
2022-10-04T09:59:46.435Z,4000
2022-10-04T10:00:46.670Z,3980
2022-10-04T10:01:46.869Z,3680
2022-10-04T10:02:47.456Z,3544
2022-10-04T10:03:47.930Z,3392
2022-10-04T10:04:47.849Z,3648
2022-10-04T10:05:48.307Z,3984
2022-10-04T10:06:50.111Z,3996
2022-10-04T10:07:50.061Z,3800
2022-10-04T10:08:51.293Z,3844
2022-10-04T10:09:51.489Z,3672
2022-10-04T10:10:51.427Z,3548
2022-10-04T10:11:52.928Z,3636
2022-10-04T10:12:52.906Z,3600
2022-10-04T10:13:53.949Z,3908
2022-10-04T10:14:54.455Z,4160
2022-10-04T10:15:55.680Z,4264
2022-10-04T10:16:55.897Z,3872
2022-10-04T10:17:56.607Z,3612
2022-10-04T10:18:57.724Z,3584
2022-10-04T10:19:57.950Z,3348
2022-10-04T10:20:58.175Z,3264
2022-10-04T10:21:58.107Z,3312
2022-10-04T10:22:59.336Z,3392
2022-10-04T10:23:59.565Z,3532
2022-10-04T10:25:04.038Z,3384
2022-10-04T10:26:01.079Z,3292
2022-10-04T10:27:01.003Z,3260
2022-10-04T10:28:02.125Z,3244
2022-10-04T10:29:02.441Z,3184
2022-10-04T10:30:02.369Z,3264
2022-10-04T10:31:03.580Z,3396
2022-10-04T10:32:03.643Z,3400
2022-10-04T10:33:04.897Z,3204
2022-10-04T10:34:04.846Z,3100
2022-10-04T10:35:04.778Z,2976
2022-10-04T10:36:05.894Z,2872
2022-10-04T10:37:06.473Z,2804
2022-10-04T10:38:10.363Z,2876
2022-10-04T10:39:07.601Z,2856
2022-10-04T10:40:08.814Z,2824
2022-10-04T10:41:09.331Z,2752
2022-10-04T10:42:09.836Z,2580
2022-10-04T10:43:10.326Z,2492
2022-10-04T10:44:11.465Z,2480
2022-10-04T10:45:10.934Z,2408
2022-10-04T10:46:12.169Z,2292
2022-10-04T10:47:12.042Z,2252
2022-10-04T10:48:13.277Z,2272
2022-10-04T10:49:13.500Z,2216
2022-10-04T10:50:14.149Z,2172
2022-10-04T10:51:13.506Z,2140
2022-10-04T10:52:15.088Z,2132
2022-10-04T10:53:15.068Z,2124
2022-10-04T10:54:16.023Z,2172
2022-10-04T10:55:16.974Z,2164
2022-10-04T10:56:18.041Z,2192
2022-10-04T10:57:18.291Z,2264
2022-10-04T10:58:18.224Z,2276
2022-10-04T10:59:19.191Z,2300
2022-10-04T11:00:20.114Z,2356
2022-10-04T11:01:21.240Z,2300
2022-10-04T11:02:32.835Z,2232
2022-10-04T11:03:35.190Z,2224
2022-10-04T11:04:21.764Z,2312
2022-10-04T11:05:22.457Z,2344
2022-10-04T11:06:23.796Z,2304
2022-10-04T11:07:24.446Z,2348
2022-10-04T11:08:24.521Z,2440
2022-10-04T11:09:26.089Z,2552
2022-10-04T11:10:26.595Z,2680
2022-10-04T11:11:27.514Z,2580
2022-10-04T11:12:27.737Z,2496
2022-10-04T11:13:27.404Z,2496
2022-10-04T11:14:28.641Z,2604
2022-10-04T11:15:28.759Z,2744
2022-10-04T11:16:29.156Z,2688
2022-10-04T11:17:29.221Z,2440
2022-10-04T11:18:29.445Z,2276
2022-10-04T11:19:29.943Z,2244
2022-10-04T11:20:29.571Z,2268
2022-10-04T11:21:31.065Z,2276
2022-10-04T11:22:33.730Z,2248
2022-10-04T11:23:31.696Z,2156
2022-10-04T11:24:33.197Z,2152
2022-10-04T11:25:33.104Z,2144
2022-10-04T11:26:33.866Z,2132
2022-10-04T11:27:34.505Z,2124
2022-10-04T11:28:35.991Z,2216
2022-10-04T11:29:36.387Z,2428
2022-10-04T11:30:36.645Z,2588
2022-10-04T11:31:36.855Z,2476
2022-10-04T11:32:37.229Z,2688
2022-10-04T11:33:37.780Z,2604
2022-10-04T11:34:37.969Z,2552
2022-10-04T11:35:38.615Z,2508
2022-10-04T11:36:39.653Z,2344
2022-10-04T11:37:40.550Z,2500
2022-10-04T11:38:40.778Z,2408
2022-10-04T11:39:44.335Z,2492
2022-10-04T11:40:41.982Z,2480
2022-10-04T11:41:41.921Z,2372
2022-10-04T11:42:42.287Z,2316
2022-10-04T11:43:43.233Z,2144
2022-10-04T11:44:44.518Z,2036
2022-10-04T11:45:44.426Z,2200
2022-10-04T11:46:45.950Z,2036
2022-10-04T11:47:45.877Z,1676
2022-10-04T11:48:45.811Z,1656
2022-10-04T11:49:46.766Z,1980
2022-10-04T11:50:46.394Z,1928
2022-10-04T11:51:48.035Z,1988
2022-10-04T11:52:48.676Z,1972
2022-10-04T11:53:49.198Z,1888
2022-10-04T11:54:49.696Z,1880
2022-10-04T11:55:49.624Z,2036
2022-10-04T11:56:51.340Z,2016
2022-10-04T11:57:51.275Z,1912
2022-10-04T11:58:51.172Z,1728
2022-10-04T11:59:52.128Z,1684
2022-10-04T12:00:53.352Z,1752
2022-10-04T12:01:53.584Z,2152
2022-10-04T12:02:54.082Z,2680
2022-10-04T12:03:54.183Z,3068
2022-10-04T12:04:55.321Z,2912
2022-10-04T12:05:55.344Z,2760
2022-10-04T12:06:56.129Z,3032
2022-10-04T12:07:57.065Z,3648
2022-10-04T12:08:57.436Z,3788
2022-10-04T12:10:05.477Z,4636
2022-10-04T12:10:59.705Z,5344
2022-10-04T12:11:59.627Z,6020
2022-10-04T12:13:00.250Z,6112
2022-10-04T12:14:01.474Z,6388
2022-10-04T12:15:01.736Z,6528
2022-10-04T12:16:01.856Z,6544
2022-10-04T12:17:02.423Z,6012
2022-10-04T12:18:03.353Z,6104
2022-10-04T12:19:03.293Z,6132
2022-10-04T12:20:05.750Z,5588
2022-10-04T12:21:05.206Z,5772
2022-10-04T12:22:06.421Z,5412
2022-10-04T12:23:06.650Z,5808
2022-10-04T12:24:07.314Z,5660
2022-10-04T12:25:07.290Z,5040
2022-10-04T12:26:08.250Z,5240
2022-10-04T12:27:08.779Z,6348
2022-10-04T12:28:10.324Z,6812
2022-10-04T12:29:10.420Z,6748
2022-10-04T12:30:11.099Z,7020
2022-10-04T12:31:11.081Z,7380
2022-10-04T12:32:12.506Z,7280
2022-10-04T12:33:12.429Z,7048
2022-10-04T12:34:13.420Z,6964
2022-10-04T12:35:14.691Z,6988
2022-10-04T12:36:14.949Z,7500
2022-10-04T12:37:14.986Z,7500
2022-10-04T12:38:15.621Z,7048
2022-10-04T12:39:16.155Z,7280
2022-10-04T12:40:16.240Z,7180
2022-10-04T12:41:17.144Z,6280
2022-10-04T12:42:18.079Z,6692
2022-10-04T12:43:18.313Z,7132
2022-10-04T12:44:19.244Z,7524
2022-10-04T12:45:19.485Z,7432
2022-10-04T12:46:21.069Z,7192
2022-10-04T12:47:21.404Z,7720
2022-10-04T12:48:21.896Z,7308
2022-10-04T12:49:22.208Z,7692
2022-10-04T12:50:22.511Z,7716
2022-10-04T12:51:23.177Z,7348
2022-10-04T12:52:24.092Z,6912
2022-10-04T12:53:24.367Z,6832
2022-10-04T12:54:25.043Z,6864
2022-10-04T12:55:26.117Z,6480
2022-10-04T12:56:26.745Z,6648
2022-10-04T12:57:27.521Z,6508
2022-10-04T12:58:29.031Z,6340
2022-10-04T12:59:29.279Z,6148
2022-10-04T13:00:29.221Z,6220
2022-10-04T13:01:30.314Z,6348
2022-10-04T13:02:31.082Z,6748
2022-10-04T13:03:31.324Z,6644
2022-10-04T13:04:31.560Z,7328
2022-10-04T13:05:32.065Z,7104
2022-10-04T13:06:32.283Z,6848
2022-10-04T13:07:32.501Z,6876
2022-10-04T13:08:33.186Z,6412
2022-10-04T13:09:33.851Z,6984
2022-10-04T13:10:36.157Z,6792
2022-10-04T13:11:35.649Z,7000
2022-10-04T13:12:35.297Z,7028
2022-10-04T13:13:36.505Z,7336
2022-10-04T13:14:36.726Z,6480
2022-10-04T13:17:41.186Z,6268
2022-10-04T13:17:58.113Z,6064
2022-10-04T13:18:58.934Z,5708
2022-10-04T13:19:58.693Z,5724
2022-10-04T13:21:00.291Z,5724
2022-10-04T13:21:59.911Z,6304
2022-10-04T13:23:08.149Z,6876
2022-10-04T13:24:02.117Z,6828
2022-10-04T13:25:02.890Z,6984
2022-10-04T13:26:09.922Z,7284
2022-10-04T13:27:04.557Z,7012
2022-10-04T13:28:06.139Z,6032
2022-10-04T13:29:05.949Z,6544
2022-10-04T13:30:07.160Z,6836
2022-10-04T13:31:07.459Z,6436
2022-10-04T13:32:08.058Z,6080
2022-10-04T13:33:08.075Z,6064
2022-10-04T13:34:09.035Z,5484
2022-10-04T13:35:09.724Z,5360
2022-10-04T13:36:10.633Z,5384
2022-10-04T13:37:11.577Z,5368
2022-10-04T13:38:12.502Z,5472
2022-10-04T13:39:13.141Z,5332
2022-10-04T13:40:13.379Z,5324
2022-10-04T13:41:13.887Z,5140
2022-10-04T13:42:18.407Z,4696
2022-10-04T13:43:14.369Z,4748
2022-10-04T13:44:14.874Z,4040
2022-10-04T13:45:14.544Z,4200
2022-10-04T13:46:16.389Z,4016
2022-10-04T13:47:16.045Z,3996
2022-10-04T13:48:27.806Z,4016
2022-10-04T13:49:17.234Z,3744
2022-10-04T13:50:17.894Z,3364
2022-10-04T13:51:19.395Z,3356
2022-10-04T13:52:19.624Z,2680
2022-10-04T13:53:20.137Z,3016
2022-10-04T13:54:20.361Z,2316
2022-10-04T13:55:21.312Z,2684
2022-10-04T13:56:21.575Z,2736
2022-10-04T13:57:21.506Z,2924
2022-10-04T13:58:22.702Z,2956
2022-10-04T13:59:23.058Z,3232
2022-10-04T14:00:23.824Z,3468
2022-10-04T14:01:24.593Z,3532
2022-10-04T14:02:23.772Z,3436